Time;durP1;ratioP1;P1;durP2;ratioP2;P2;SDS_P1;SDS_P2;PMS_P1;PMS_P2;Temp;Humidity;BMP_temperature;BMP_pressure;BME280_temperature;BME280_humidity;BME280_pressure;Samples;Min_cycle;Max_cycle;Signal;HPM_P1;HPM_P2
2023/12/03 00:02:18;;;;;;;33.22;6.63;;;;;;;19.96;54.44;99639.03;5047478;28;20023;-78
2023/12/03 00:04:44;;;;;;;36.08;7.30;;;;;;;19.89;54.41;99638.16;5047756;28;20021;-77
2023/12/03 00:07:10;;;;;;;24.65;6.60;;;;;;;19.90;54.63;99631.66;5047978;28;20033;-77
2023/12/03 00:09:36;;;;;;;30.75;6.55;;;;;;;19.91;54.53;99619.69;5045799;28;20037;-77
2023/12/03 00:12:07;;;;;;;31.15;6.22;;;;;;;19.95;54.39;99645.50;5061519;28;20044;-76
2023/12/03 00:14:33;;;;;;;35.17;7.88;;;;;;;19.89;54.33;99632.72;5047683;28;20099;-78
2023/12/03 00:16:58;;;;;;;37.78;6.70;;;;;;;19.88;54.19;99636.47;5047144;28;20492;-78
2023/12/03 00:19:24;;;;;;;33.47;6.57;;;;;;;19.88;54.25;99648.25;5047597;28;20095;-78
2023/12/03 00:21:50;;;;;;;34.63;5.68;;;;;;;19.87;54.43;99646.56;5047960;28;20033;-77
2023/12/03 00:24:17;;;;;;;36.80;7.25;;;;;;;19.88;54.55;99637.31;5047758;28;20102;-78
2023/12/03 00:26:42;;;;;;;45.42;8.05;;;;;;;19.85;54.91;99661.44;5048526;28;20064;-78
2023/12/03 00:29:08;;;;;;;24.15;6.75;;;;;;;19.86;55.19;99661.25;5045344;28;20059;-78
2023/12/03 00:31:34;;;;;;;43.75;6.68;;;;;;;19.91;55.15;99653.28;5047851;28;20798;-77
2023/12/03 00:34:01;;;;;;;42.50;7.65;;;;;;;19.89;55.28;99660.84;5047762;28;20024;-78
2023/12/03 00:36:27;;;;;;;27.85;7.18;;;;;;;19.94;55.15;99663.78;5054132;28;20164;-79
2023/12/03 00:38:52;;;;;;;33.58;7.40;;;;;;;19.98;55.08;99669.66;5057790;28;20025;-76
2023/12/03 00:41:18;;;;;;;38.90;6.97;;;;;;;19.97;55.29;99663.34;5049535;28;20068;-77
2023/12/03 00:43:43;;;;;;;34.55;7.40;;;;;;;20.00;55.43;99664.81;5047715;28;20116;-78
2023/12/03 00:46:09;;;;;;;36.35;6.35;;;;;;;19.86;55.28;99649.50;5047304;28;20021;-77
2023/12/03 00:48:34;;;;;;;31.20;6.38;;;;;;;20.03;55.37;99669.88;5047215;28;20021;-79
2023/12/03 00:51:00;;;;;;;39.78;7.38;;;;;;;20.01;55.32;99670.09;5047583;28;20382;-77
2023/12/03 00:53:25;;;;;;;21.35;6.20;;;;;;;20.03;55.27;99678.91;5061379;28;20315;-78
2023/12/03 00:55:52;;;;;;;53.28;8.05;;;;;;;19.88;55.44;99647.38;5047566;28;20504;-79
2023/12/03 00:58:18;;;;;;;36.42;7.15;;;;;;;20.01;55.53;99669.25;5046774;28;20087;-77
2023/12/03 01:00:43;;;;;;;49.08;6.88;;;;;;;19.87;55.47;99662.09;5047064;28;20021;-78
2023/12/03 01:03:09;;;;;;;39.42;7.03;;;;;;;20.02;55.63;99698.22;5047327;28;20025;-77
2023/12/03 01:05:35;;;;;;;39.45;6.72;;;;;;;19.98;55.57;99681.44;5044816;28;20073;-78
2023/12/03 01:08:00;;;;;;;38.67;6.88;;;;;;;19.86;55.58;99660.41;5047005;28;20032;-77
2023/12/03 01:10:25;;;;;;;33.35;6.65;;;;;;;19.86;55.87;99677.63;5049159;28;20025;-76
2023/12/03 01:12:51;;;;;;;32.80;6.20;;;;;;;19.94;56.01;99696.53;5050486;28;20021;-76
2023/12/03 01:15:16;;;;;;;33.17;6.53;;;;;;;19.82;56.00;99681.81;5050649;28;20675;-77
2023/12/03 01:17:42;;;;;;;35.33;7.22;;;;;;;19.94;56.02;99696.53;5050500;28;20035;-76
2023/12/03 01:20:08;;;;;;;24.77;6.35;;;;;;;19.81;56.00;99673.84;5050746;28;20112;-77
2023/12/03 01:22:33;;;;;;;24.13;7.28;;;;;;;19.85;56.31;99694.19;5050749;28;20036;-78
2023/12/03 01:24:59;;;;;;;32.92;7.65;;;;;;;19.85;56.38;99691.47;5050508;28;20049;-78
2023/12/03 01:27:24;;;;;;;33.00;7.38;;;;;;;19.81;56.33;99684.75;5054980;28;20021;-79
2023/12/03 01:29:50;;;;;;;31.55;7.68;;;;;;;19.89;56.35;99692.75;5055419;28;20120;-79
2023/12/03 01:32:15;;;;;;;38.85;7.68;;;;;;;19.89;56.45;99690.03;5053604;28;20067;-78
2023/12/03 01:34:41;;;;;;;29.02;6.85;;;;;;;19.85;56.48;99699.66;5050452;28;20025;-78
2023/12/03 01:37:06;;;;;;;34.17;6.28;;;;;;;19.82;56.60;99694.63;5050570;28;20097;-77
2023/12/03 01:39:32;;;;;;;24.17;7.28;;;;;;;19.80;56.75;99697.56;5050220;28;20064;-77
2023/12/03 01:41:57;;;;;;;33.05;7.93;;;;;;;19.78;56.78;99717.94;5047834;28;20120;-78
2023/12/03 01:44:23;;;;;;;32.35;7.60;;;;;;;19.77;57.01;99689.78;5049799;28;20455;-78
2023/12/03 01:46:50;;;;;;;48.03;9.02;;;;;;;19.69;56.81;99692.72;5049932;28;20094;-77
2023/12/03 01:49:17;;;;;;;45.38;8.30;;;;;;;19.69;56.76;99690.00;5049683;28;20481;-77
2023/12/03 01:51:44;;;;;;;36.25;7.50;;;;;;;19.73;57.05;99695.84;5050198;28;20055;-77
2023/12/03 01:54:09;;;;;;;36.10;8.35;;;;;;;19.75;57.11;99707.41;5049896;28;20500;-76
2023/12/03 01:56:35;;;;;;;37.47;7.32;;;;;;;19.76;57.31;99709.09;5049629;28;20048;-77
2023/12/03 01:59:01;;;;;;;38.55;6.47;;;;;;;19.70;57.26;99721.66;5049904;28;20033;-77
2023/12/03 02:01:26;;;;;;;36.45;8.55;;;;;;;19.67;57.41;99707.59;5049715;28;20163;-78
2023/12/03 02:03:52;;;;;;;41.45;7.45;;;;;;;19.73;57.38;99704.88;5050016;28;20099;-77
2023/12/03 02:06:17;;;;;;;35.13;6.70;;;;;;;19.69;57.50;99710.97;5050190;28;20036;-77
2023/12/03 02:08:43;;;;;;;42.63;8.35;;;;;;;19.64;57.54;99706.13;5049689;28;20386;-77
2023/12/03 02:11:08;;;;;;;54.35;7.10;;;;;;;19.66;57.48;99705.94;5050146;28;20060;-77
2023/12/03 02:13:38;;;;;;;49.03;7.70;;;;;;;19.55;57.66;99691.00;5049663;28;20074;-77
2023/12/03 02:16:04;;;;;;;39.88;6.45;;;;;;;19.61;57.80;99711.13;5049614;28;20468;-78
2023/12/03 02:18:32;;;;;;;45.35;7.22;;;;;;;19.64;57.88;99702.53;5057620;28;20516;-78
2023/12/03 02:20:57;;;;;;;46.08;8.10;;;;;;;19.64;57.93;99699.81;5056261;28;20029;-78
2023/12/03 02:23:27;;;;;;;31.02;6.82;;;;;;;19.50;57.75;99683.44;5052503;28;20429;-78
2023/12/03 02:25:53;;;;;;;31.92;7.43;;;;;;;19.63;57.80;99714.53;5049753;28;20107;-76
2023/12/03 02:28:18;;;;;;;36.28;7.57;;;;;;;19.64;57.88;99722.50;5046397;28;20493;-77
2023/12/03 02:30:44;;;;;;;47.83;8.43;;;;;;;19.64;58.02;99713.47;5048991;28;20020;-78
2023/12/03 02:33:10;;;;;;;48.63;8.68;;;;;;;19.47;58.12;99697.47;5047916;28;20040;-77
2023/12/03 02:35:37;;;;;;;31.35;7.43;;;;;;;19.57;58.23;99718.88;5048934;28;20053;-77
2023/12/03 02:38:02;;;;;;;36.70;7.43;;;;;;;19.44;58.16;99711.53;5049316;28;20090;-77
2023/12/03 02:40:32;;;;;;;53.22;7.78;;;;;;;19.58;58.30;99733.38;5047992;28;20037;-78
2023/12/03 02:42:58;;;;;;;36.53;8.20;;;;;;;19.55;58.29;99729.16;5048721;28;20029;-76
2023/12/03 02:45:23;;;;;;;48.80;8.82;;;;;;;19.57;58.26;99739.91;5049260;28;20043;-77
2023/12/03 02:47:49;;;;;;;35.70;7.70;;;;;;;19.56;58.20;99741.78;5048953;28;20020;-77
2023/12/03 02:50:14;;;;;;;50.72;9.45;;;;;;;19.58;58.22;99747.00;5048677;28;20091;-76
2023/12/03 02:52:41;;;;;;;42.03;7.28;;;;;;;19.37;58.36;99734.31;5048904;28;20550;-78
2023/12/03 02:55:07;;;;;;;39.85;9.73;;;;;;;19.43;58.45;99755.34;5049279;28;20059;-80
2023/12/03 02:57:33;;;;;;;30.83;7.10;;;;;;;19.36;58.48;99757.16;5048818;28;20023;-76
2023/12/03 02:59:58;;;;;;;45.38;8.45;;;;;;;19.41;58.74;99766.47;5049185;28;20032;-78
2023/12/03 03:02:24;;;;;;;47.10;8.50;;;;;;;19.42;58.44;99773.59;5049206;28;20433;-78
2023/12/03 03:04:49;;;;;;;47.45;8.05;;;;;;;19.32;58.38;99748.56;5049085;28;20033;-77
2023/12/03 03:07:15;;;;;;;37.35;8.45;;;;;;;19.41;58.52;99787.44;5049035;28;20029;-78
2023/12/03 03:09:40;;;;;;;40.38;7.53;;;;;;;19.24;58.37;99758.78;5053985;28;20091;-78
2023/12/03 03:12:06;;;;;;;38.83;9.20;;;;;;;19.39;58.45;99795.81;5057753;28;20086;-78
2023/12/03 03:14:32;;;;;;;45.78;8.82;;;;;;;19.43;58.36;99797.09;5050555;28;20033;-78
2023/12/03 03:16:57;;;;;;;40.65;8.63;;;;;;;19.45;58.36;99805.91;5048808;28;20021;-77
2023/12/03 03:19:23;;;;;;;56.72;8.60;;;;;;;19.41;58.41;99812.84;5048530;28;20469;-78
2023/12/03 03:21:48;;;;;;;52.15;11.50;;;;;;;19.49;57.99;99820.00;5048650;28;20542;-78
2023/12/03 03:24:14;;;;;;;44.22;10.43;;;;;;;19.28;58.12;99810.00;5048343;28;20045;-78
2023/12/03 03:26:39;;;;;;;38.00;8.35;;;;;;;19.31;58.09;99815.03;5048468;28;20045;-78
2023/12/03 03:29:06;;;;;;;36.88;8.73;;;;;;;19.34;57.96;99814.66;5045188;28;20025;-76
2023/12/03 03:31:32;;;;;;;39.08;10.43;;;;;;;19.39;58.04;99839.44;5048214;28;20040;-76
2023/12/03 03:33:57;;;;;;;54.10;9.50;;;;;;;19.34;57.65;99833.72;5047365;28;20025;-75
2023/12/03 03:36:23;;;;;;;39.17;8.82;;;;;;;19.36;57.56;99839.81;5048406;28;20040;-76
2023/12/03 03:38:49;;;;;;;41.80;9.13;;;;;;;19.21;57.97;99830.91;5048597;28;20029;-77
2023/12/03 03:41:14;;;;;;;38.80;10.00;;;;;;;19.31;58.04;99853.22;5048554;28;20108;-77
2023/12/03 03:43:40;;;;;;;38.92;8.00;;;;;;;19.20;58.09;99840.16;5048917;28;20119;-77
2023/12/03 03:46:06;;;;;;;38.25;8.65;;;;;;;19.38;57.85;99870.47;5048252;28;20116;-77
2023/12/03 03:48:31;;;;;;;42.45;8.90;;;;;;;19.39;57.79;99874.91;5048103;28;20482;-78
2023/12/03 03:50:57;;;;;;;45.05;8.45;;;;;;;19.39;57.68;99888.53;5047709;28;20021;-77
2023/12/03 03:53:22;;;;;;;55.45;9.88;;;;;;;19.37;57.97;99885.13;5048008;28;20457;-76
2023/12/03 03:55:48;;;;;;;46.55;9.52;;;;;;;19.35;58.04;99868.16;5048124;28;20025;-78
2023/12/03 03:58:14;;;;;;;35.40;8.52;;;;;;;19.35;57.90;99889.13;5048009;28;20044;-76
2023/12/03 04:00:39;;;;;;;41.05;8.35;;;;;;;19.36;57.99;99874.41;5050799;28;20040;-79
2023/12/03 04:03:05;;;;;;;43.47;9.07;;;;;;;19.38;58.06;99881.38;5053280;28;20028;-78
2023/12/03 04:05:30;;;;;;;45.50;8.52;;;;;;;19.31;58.12;99875.03;5051601;28;20037;-79
2023/12/03 04:07:56;;;;;;;51.60;9.70;;;;;;;19.35;58.14;99886.38;5048722;28;20577;-79
2023/12/03 04:10:21;;;;;;;50.45;8.88;;;;;;;19.35;58.48;99881.78;5048419;28;20028;-77
2023/12/03 04:12:50;;;;;;;58.85;9.75;;;;;;;19.34;58.76;99882.81;5047930;28;20025;-79
2023/12/03 04:15:16;;;;;;;38.75;8.93;;;;;;;19.35;58.87;99887.22;5047847;28;20029;-77
2023/12/03 04:17:43;;;;;;;58.78;10.18;;;;;;;19.33;58.85;99889.28;5047896;28;20527;-79
2023/12/03 04:20:09;;;;;;;58.15;11.68;;;;;;;19.29;58.65;99879.00;5048162;28;20029;-77
2023/12/03 04:22:34;;;;;;;41.65;10.10;;;;;;;19.34;58.57;99895.59;5045489;28;20483;-77
2023/12/03 04:25:00;;;;;;;52.63;10.10;;;;;;;19.34;58.87;99895.59;5047815;28;20049;-77
2023/12/03 04:27:26;;;;;;;53.17;10.40;;;;;;;19.38;58.90;99896.91;5048006;28;20477;-77
2023/12/03 04:29:51;;;;;;;45.30;9.88;;;;;;;19.33;58.76;99897.47;5047324;28;20421;-77
2023/12/03 04:32:17;;;;;;;38.78;9.55;;;;;;;19.38;58.82;99916.84;5045195;28;20056;-77
2023/12/03 04:34:43;;;;;;;49.25;9.55;;;;;;;19.39;58.87;99925.84;5045504;28;20029;-77
2023/12/03 04:37:09;;;;;;;50.47;11.15;;;;;;;19.18;58.89;99894.00;5048224;28;20032;-76
2023/12/03 04:39:35;;;;;;;57.92;11.95;;;;;;;19.29;59.35;99926.22;5047668;28;20557;-78
2023/12/03 04:42:01;;;;;;;67.18;12.43;;;;;;;19.07;58.99;99893.72;5047974;28;20025;-77
2023/12/03 04:44:27;;;;;;;52.65;11.60;;;;;;;19.25;59.03;99914.00;5049792;28;20078;-78
2023/12/03 04:46:53;;;;;;;39.83;9.95;;;;;;;19.28;58.83;99932.69;5051697;28;20474;-78
2023/12/03 04:49:18;;;;;;;49.13;9.98;;;;;;;19.27;58.88;99932.88;5052838;28;20021;-78
2023/12/03 04:51:44;;;;;;;60.63;10.48;;;;;;;19.33;58.40;99938.38;5054784;28;20052;-79
2023/12/03 04:54:09;;;;;;;42.60;9.27;;;;;;;19.29;58.17;99937.09;5058760;28;20023;-78
2023/12/03 04:56:35;;;;;;;30.38;8.30;;;;;;;19.19;57.70;99909.34;5054096;28;20602;-76
2023/12/03 04:59:00;;;;;;;34.05;8.32;;;;;;;19.31;57.50;99943.19;5050858;28;20052;-77
2023/12/03 05:01:26;;;;;;;41.17;8.13;;;;;;;19.22;57.50;99932.63;5051832;28;20055;-77
2023/12/03 05:03:51;;;;;;;40.83;7.38;;;;;;;19.28;57.35;99940.03;5050803;28;20119;-77
2023/12/03 05:06:17;;;;;;;28.95;7.30;;;;;;;19.41;57.28;99976.47;5050731;28;20715;-78
2023/12/03 05:08:42;;;;;;;46.10;8.98;;;;;;;19.44;56.89;99981.53;5048209;28;20491;-77
2023/12/03 05:11:08;;;;;;;48.17;9.88;;;;;;;19.41;56.37;99984.66;5050855;28;20025;-77
2023/12/03 05:13:34;;;;;;;35.72;7.57;;;;;;;19.42;56.47;99991.75;5050619;28;20029;-78
2023/12/03 05:16:07;;;;;;;39.95;7.95;;;;;;;19.41;56.25;99990.09;5051191;28;20021;-77
2023/12/03 05:18:32;;;;;;;45.80;8.35;;;;;;;19.42;56.16;99986.31;5050949;28;20083;-78
2023/12/03 05:20:58;;;;;;;45.78;12.25;;;;;;;19.36;56.37;99991.66;5050717;28;20025;-77
2023/12/03 05:23:24;;;;;;;47.78;12.70;;;;;;;19.41;56.46;100014.66;5050212;28;20078;-77
2023/12/03 05:25:50;;;;;;;53.35;12.27;;;;;;;19.40;56.22;100023.84;5051052;28;20057;-77
2023/12/03 05:28:16;;;;;;;47.70;10.52;;;;;;;19.43;55.88;100041.72;5050749;28;20451;-77
2023/12/03 05:30:42;;;;;;;48.95;9.57;;;;;;;19.29;55.09;100018.91;5050139;28;20512;-78
2023/12/03 05:33:07;;;;;;;51.75;13.23;;;;;;;19.33;55.22;100022.06;5048191;28;20029;-77
2023/12/03 05:35:35;;;;;;;58.83;16.30;;;;;;;19.35;55.14;100034.50;5050231;28;20025;-77
2023/12/03 05:38:00;;;;;;;62.25;15.57;;;;;;;19.30;54.69;100047.00;5049673;28;20112;-77
2023/12/03 05:40:26;;;;;;;38.17;9.27;;;;;;;19.27;53.63;100044.66;5051275;28;20127;-77
2023/12/03 05:42:51;;;;;;;37.22;6.88;;;;;;;19.18;53.42;100048.56;5054948;28;20028;-78
2023/12/03 05:45:17;;;;;;;40.85;6.90;;;;;;;19.16;53.55;100050.63;5058876;28;20047;-78
2023/12/03 05:47:42;;;;;;;29.30;6.97;;;;;;;18.97;53.19;100019.41;5052805;28;20087;-77
2023/12/03 05:50:08;;;;;;;43.72;7.35;;;;;;;19.10;53.17;100067.78;5049852;28;20025;-77
2023/12/03 05:52:34;;;;;;;34.40;6.32;;;;;;;19.08;53.13;100059.78;5049336;28;20105;-77
2023/12/03 05:54:59;;;;;;;49.47;8.48;;;;;;;19.06;53.21;100061.84;5049706;28;20025;-78
2023/12/03 05:57:25;;;;;;;51.88;8.20;;;;;;;19.02;53.16;100066.84;5049370;28;20611;-79
2023/12/03 05:59:50;;;;;;;36.30;7.55;;;;;;;19.00;53.50;100062.63;5048866;28;20037;-78
2023/12/03 06:02:17;;;;;;;28.80;7.47;;;;;;;18.91;53.51;100048.28;5048977;28;20703;-77
2023/12/03 06:04:42;;;;;;;37.72;8.50;;;;;;;19.08;53.76;100081.56;5049604;28;20021;-78
2023/12/03 06:07:08;;;;;;;52.58;8.68;;;;;;;19.11;54.01;100086.66;5049613;28;20033;-78
2023/12/03 06:09:33;;;;;;;55.30;9.02;;;;;;;19.06;53.89;100078.22;5050150;28;20138;-78
2023/12/03 06:12:02;;;;;;;48.25;9.63;;;;;;;19.02;53.99;100075.03;5048577;28;20127;-79
2023/12/03 06:14:28;;;;;;;46.33;11.80;;;;;;;19.03;54.05;100075.88;5050232;28;20040;-77
2023/12/03 06:16:53;;;;;;;45.83;9.63;;;;;;;19.15;54.11;100104.31;5050106;28;20021;-79
2023/12/03 06:19:19;;;;;;;40.78;9.30;;;;;;;19.16;54.16;100116.91;5048525;28;20106;-76
2023/12/03 06:21:44;;;;;;;54.15;9.32;;;;;;;19.15;54.34;100123.41;5049783;28;20061;-77
2023/12/03 06:24:10;;;;;;;53.45;10.02;;;;;;;19.15;54.54;100119.81;5050083;28;20478;-78
2023/12/03 06:26:35;;;;;;;41.47;13.88;;;;;;;19.13;54.73;100121.91;5050088;28;20025;-76
2023/12/03 06:29:01;;;;;;;63.25;11.75;;;;;;;19.15;54.64;100126.13;5050779;28;20025;-78
2023/12/03 06:31:27;;;;;;;57.97;12.15;;;;;;;19.15;54.66;100126.13;5050129;28;20508;-80
2023/12/03 06:33:53;;;;;;;64.63;14.05;;;;;;;19.08;54.66;100130.66;5050879;28;20025;-81
2023/12/03 06:36:18;;;;;;;51.28;11.77;;;;;;;19.10;54.89;100134.03;5054028;28;20025;-79
2023/12/03 06:38:44;;;;;;;70.88;12.80;;;;;;;19.03;55.51;100125.78;5052667;28;20052;-77
2023/12/03 06:41:09;;;;;;;80.90;27.63;;;;;;;19.08;55.35;100136.09;5047828;28;20402;-77
2023/12/03 06:43:35;;;;;;;83.30;23.10;;;;;;;19.04;55.68;100145.72;5049094;28;20020;-76
2023/12/03 06:46:01;;;;;;;60.15;15.05;;;;;;;19.02;55.74;100150.50;5046857;28;20138;-77
2023/12/03 06:48:26;;;;;;;85.82;15.15;;;;;;;19.02;55.92;100147.75;5049440;28;20150;-78
2023/12/03 06:50:52;;;;;;;61.75;12.18;;;;;;;19.10;56.11;100157.72;5048865;28;20028;-77
2023/12/03 06:53:18;;;;;;;72.55;12.75;;;;;;;19.09;56.43;100147.84;5048959;28;20032;-78
2023/12/03 06:55:44;;;;;;;58.35;11.43;;;;;;;18.99;56.28;100131.78;5049016;28;20567;-78
2023/12/03 06:58:09;;;;;;;92.13;13.90;;;;;;;19.11;56.73;100149.34;5049989;28;20029;-77
2023/12/03 07:00:35;;;;;;;120.43;18.20;;;;;;;19.11;56.77;100156.69;5049238;28;20033;-79
2023/12/03 07:03:00;;;;;;;83.03;14.27;;;;;;;19.04;56.67;100148.44;5048848;28;20511;-77
2023/12/03 07:05:26;;;;;;;92.95;15.80;;;;;;;19.13;56.49;100160.06;5048501;28;20033;-78
2023/12/03 07:07:51;;;;;;;71.93;13.60;;;;;;;19.15;56.50;100161.56;5048560;28;20024;-77
2023/12/03 07:10:18;;;;;;;52.13;13.35;;;;;;;19.13;56.62;100155.47;5048540;28;20035;-77
2023/12/03 07:12:43;;;;;;;68.75;14.75;;;;;;;19.04;56.54;100145.72;5048717;28;20112;-79
2023/12/03 07:15:09;;;;;;;82.70;16.67;;;;;;;19.24;56.92;100170.47;5048510;28;20027;-78
2023/12/03 07:17:35;;;;;;;90.95;17.90;;;;;;;19.20;56.62;100166.47;5048931;28;20025;-78
2023/12/03 07:20:00;;;;;;;55.50;14.77;;;;;;;19.23;56.73;100169.66;5048904;28;20082;-78
2023/12/03 07:22:26;;;;;;;66.85;15.48;;;;;;;19.23;56.86;100190.63;5049394;28;20029;-77
2023/12/03 07:24:53;;;;;;;74.80;15.35;;;;;;;19.22;57.05;100178.84;5050750;28;20485;-79
2023/12/03 07:27:19;;;;;;;89.07;18.90;;;;;;;19.24;56.72;100179.50;5057956;28;20053;-79
2023/12/03 07:29:45;;;;;;;70.57;18.70;;;;;;;19.26;56.65;100184.78;5053865;28;20055;-81
2023/12/03 07:32:10;;;;;;;88.10;22.30;;;;;;;19.21;56.48;100179.88;5048104;28;20444;-79
2023/12/03 07:34:36;;;;;;;110.50;25.98;;;;;;;19.15;57.07;100191.56;5048104;28;20037;-77
2023/12/03 07:37:02;;;;;;;133.75;37.55;;;;;;;19.16;57.31;100203.31;5049330;28;20055;-77
2023/12/03 07:39:28;;;;;;;118.28;28.77;;;;;;;19.15;57.35;100202.47;5049474;28;20142;-80
2023/12/03 07:41:54;;;;;;;124.15;38.33;;;;;;;19.05;57.28;100190.19;5048640;28;20592;-79
2023/12/03 07:44:21;;;;;;;144.85;41.95;;;;;;;19.09;57.34;100210.53;5048164;28;20495;-79
2023/12/03 07:46:47;;;;;;;150.75;33.88;;;;;;;19.05;57.93;100201.91;5048122;28;20511;-79
2023/12/03 07:49:12;;;;;;;112.95;29.67;;;;;;;18.88;57.93;100187.66;5048670;28;20124;-77
2023/12/03 07:51:38;;;;;;;97.50;20.33;;;;;;;19.01;58.24;100206.06;5047919;28;20083;-78
2023/12/03 07:54:04;;;;;;;117.65;23.35;;;;;;;18.95;58.12;100202.22;5046798;28;20036;-78
2023/12/03 07:56:40;;;;;;;133.07;30.10;;;;;;;18.98;58.09;100211.88;5029070;28;20044;-78
2023/12/03 07:59:06;;;;;;;114.80;32.60;;;;;;;19.01;58.32;100211.50;5046121;28;20040;-77
2023/12/03 08:01:32;;;;;;;183.55;57.17;;;;;;;19.06;58.47;100230.84;5046310;28;20025;-78
2023/12/03 08:03:58;;;;;;;73.90;22.83;;;;;;;19.07;57.40;100232.56;5047806;28;20037;-79
2023/12/03 08:06:24;;;;;;;69.72;18.70;;;;;;;19.11;57.17;100235.75;5048164;28;20025;-78
2023/12/03 08:08:52;;;;;;;178.20;58.38;;;;;;;19.20;57.34;100238.19;5047763;28;20032;-78
2023/12/03 08:11:18;;;;;;;209.48;74.97;;;;;;;19.18;57.34;100229.34;5048026;28;20063;-79
2023/12/03 08:13:44;;;;;;;167.05;60.90;;;;;;;19.28;57.41;100242.69;5047922;28;20818;-79
2023/12/03 08:16:09;;;;;;;126.85;43.75;;;;;;;19.37;57.60;100242.38;5050327;28;20017;-78
2023/12/03 08:18:35;;;;;;;146.65;46.28;;;;;;;19.43;57.05;100238.94;5054607;28;20032;-79
2023/12/03 08:21:00;;;;;;;147.18;38.17;;;;;;;19.43;56.73;100238.94;5057878;28;20029;-78
2023/12/03 08:23:26;;;;;;;108.57;35.28;;;;;;;19.45;57.04;100247.75;5056588;28;20053;-77
2023/12/03 08:25:52;;;;;;;171.63;35.92;;;;;;;19.36;57.15;100218.88;5052729;28;20573;-76
2023/12/03 08:28:18;;;;;;;123.22;39.13;;;;;;;19.34;57.06;100212.78;5051008;28;20025;-77
2023/12/03 08:30:44;;;;;;;121.80;36.00;;;;;;;19.50;57.06;100239.88;5051491;28;20110;-77
2023/12/03 08:33:09;;;;;;;107.18;30.63;;;;;;;19.42;57.22;100226.31;5049726;28;20108;-78
2023/12/03 08:35:35;;;;;;;161.85;33.50;;;;;;;19.53;57.29;100247.66;5052149;28;20033;-79
2023/12/03 08:38:00;;;;;;;144.27;30.00;;;;;;;19.58;57.49;100240.78;5051987;28;20029;-79
2023/12/03 08:40:26;;;;;;;98.57;25.80;;;;;;;19.64;57.18;100240.00;5052005;28;20041;-77
2023/12/03 08:42:52;;;;;;;117.95;34.97;;;;;;;19.68;57.14;100239.44;5052372;28;20409;-78
2023/12/03 08:45:17;;;;;;;95.18;28.17;;;;;;;19.75;56.94;100244.97;5052162;28;20021;-77
2023/12/03 08:47:43;;;;;;;107.25;24.10;;;;;;;19.83;56.78;100240.22;5051889;28;20025;-77
2023/12/03 08:50:09;;;;;;;133.82;23.65;;;;;;;19.95;56.23;100248.75;5050445;28;20116;-78
2023/12/03 08:52:34;;;;;;;106.03;23.05;;;;;;;19.85;55.80;100220.91;5060141;28;20032;-78
2023/12/03 08:55:02;;;;;;;99.78;28.98;;;;;;;20.07;56.01;100247.19;5063133;28;20036;-78
2023/12/03 08:57:29;;;;;;;121.32;42.78;;;;;;;20.19;55.49;100258.41;5061950;28;20067;-79
2023/12/03 08:59:55;;;;;;;144.63;47.95;;;;;;;20.30;55.51;100256.06;5059326;28;20047;-79
2023/12/03 09:02:20;;;;;;;95.80;33.95;;;;;;;20.29;55.37;100237.97;5058425;28;20116;-78
2023/12/03 09:04:46;;;;;;;83.05;27.35;;;;;;;20.52;54.81;100252.25;5056004;28;20027;-78
2023/12/03 09:07:13;;;;;;;103.47;26.15;;;;;;;20.66;54.82;100250.47;5059728;28;20056;-79
2023/12/03 09:09:39;;;;;;;98.13;24.45;;;;;;;20.80;54.38;100245.91;5059468;28;20086;-78
2023/12/03 09:12:05;;;;;;;89.47;21.30;;;;;;;20.64;53.57;100204.19;5054849;28;20025;-78
2023/12/03 09:14:31;;;;;;;58.72;20.17;;;;;;;21.05;53.21;100258.06;5050927;28;20060;-77
2023/12/03 09:16:58;;;;;;;87.43;22.02;;;;;;;21.07;52.55;100250.50;5051497;28;20485;-77
2023/12/03 09:19:24;;;;;;;83.30;23.00;;;;;;;21.01;52.33;100254.03;5051047;28;20029;-77
2023/12/03 09:21:50;;;;;;;63.70;21.75;;;;;;;20.88;52.37;100251.25;5051166;28;20545;-79
2023/12/03 09:24:16;;;;;;;73.03;21.58;;;;;;;20.89;52.56;100252.91;5050565;28;20033;-79
2023/12/03 09:26:44;;;;;;;71.70;17.30;;;;;;;20.95;52.32;100258.44;5050506;28;20060;-79
2023/12/03 09:29:13;;;;;;;60.35;17.27;;;;;;;20.99;52.09;100258.88;5051021;28;20037;-78
2023/12/03 09:31:41;;;;;;;55.80;14.18;;;;;;;20.98;51.93;100262.66;5050457;28;20032;-79
2023/12/03 09:34:08;;;;;;;63.72;15.05;;;;;;;21.02;51.65;100262.06;5050981;28;20060;-78
2023/12/03 09:36:34;;;;;;;62.47;15.20;;;;;;;21.03;51.35;100257.44;5049968;28;20094;-78
2023/12/03 09:39:01;;;;;;;78.00;16.77;;;;;;;21.15;51.47;100270.38;5047973;28;20048;-79
2023/12/03 09:41:29;;;;;;;70.95;18.48;;;;;;;21.03;51.35;100243.75;5051030;28;20032;-78
2023/12/03 09:43:59;;;;;;;54.83;16.38;;;;;;;21.16;51.07;100268.47;5049271;28;20047;-78
2023/12/03 09:46:30;;;;;;;59.97;17.30;;;;;;;21.20;51.17;100261.56;5050742;28;20021;-78
2023/12/03 09:49:00;;;;;;;57.70;16.88;;;;;;;21.23;50.93;100255.69;5050819;28;20040;-79
2023/12/03 09:51:30;;;;;;;60.00;15.00;;;;;;;20.88;50.63;100205.63;5050780;28;20025;-79
2023/12/03 09:53:58;;;;;;;59.90;15.82;;;;;;;21.22;50.73;100259.47;5050211;28;20032;-80
2023/12/03 09:56:27;;;;;;;48.78;15.32;;;;;;;21.15;50.69;100253.13;5050983;28;20035;-81
2023/12/03 09:58:53;;;;;;;48.03;12.70;;;;;;;21.15;50.61;100261.31;5063169;28;20029;-80
2023/12/03 10:01:23;;;;;;;37.28;12.73;;;;;;;21.21;50.76;100263.25;5062074;28;20040;-79
2023/12/03 10:03:51;;;;;;;64.75;16.08;;;;;;;21.20;51.12;100260.72;5050255;28;20071;-79
2023/12/03 10:06:22;;;;;;;57.88;15.27;;;;;;;21.24;51.01;100273.78;5050057;28;20048;-78
2023/12/03 10:08:48;;;;;;;74.35;17.30;;;;;;;21.25;51.12;100272.75;5049612;28;20441;-77
2023/12/03 10:11:20;;;;;;;49.60;18.35;;;;;;;21.36;51.17;100276.78;5050111;28;20064;-77
2023/12/03 10:13:46;;;;;;;54.15;15.25;;;;;;;21.38;50.67;100270.06;5049559;28;20032;-80
2023/12/03 10:16:13;;;;;;;63.33;15.18;;;;;;;21.33;51.02;100267.09;5050610;28;20025;-80
2023/12/03 10:18:39;;;;;;;66.57;20.00;;;;;;;21.35;50.36;100275.94;5049689;28;20107;-78
2023/12/03 10:21:06;;;;;;;72.45;21.73;;;;;;;21.39;50.03;100265.44;5049903;28;20108;-79
2023/12/03 10:23:32;;;;;;;69.15;21.25;;;;;;;21.29;49.68;100246.66;5049553;28;20442;-77
2023/12/03 10:26:12;;;;;;;85.20;22.88;;;;;;;21.40;49.73;100273.47;5049628;28;20167;-77
2023/12/03 10:28:39;;;;;;;68.82;22.98;;;;;;;21.37;49.37;100257.44;5049580;28;20017;-76
2023/12/03 10:31:06;;;;;;;76.55;21.70;;;;;;;21.34;49.28;100262.47;5050665;28;20105;-77
2023/12/03 10:33:31;;;;;;;63.00;21.92;;;;;;;21.35;49.28;100261.41;5049234;28;20048;-79
2023/12/03 10:36:04;;;;;;;65.90;21.85;;;;;;;21.54;49.24;100283.41;5049936;28;20531;-79
2023/12/03 10:38:37;;;;;;;62.33;21.15;;;;;;;21.58;48.74;100287.44;5049394;28;20024;-81
2023/12/03 10:41:06;;;;;;;50.08;18.75;;;;;;;21.48;47.45;100286.97;5046597;28;20040;-79
2023/12/03 10:43:34;;;;;;;28.45;8.23;;;;;;;21.41;44.88;100283.34;5049549;28;20492;-77
2023/12/03 10:45:59;;;;;;;26.27;9.48;;;;;;;21.42;43.15;100271.34;5049498;28;20484;-78
2023/12/03 10:48:27;;;;;;;24.75;6.55;;;;;;;21.45;42.08;100275.56;5054538;28;20039;-78
2023/12/03 10:51:00;;;;;;;42.33;13.68;;;;;;;21.49;42.05;100268.66;5060369;28;20025;-78
2023/12/03 10:53:26;;;;;;;29.02;10.48;;;;;;;21.46;41.81;100261.69;5051503;28;20048;-79
2023/12/03 10:55:53;;;;;;;22.05;7.13;;;;;;;21.51;42.15;100264.66;5049249;28;20064;-79
2023/12/03 10:58:19;;;;;;;26.02;6.60;;;;;;;21.50;42.25;100260.22;5049246;28;20025;-79
2023/12/03 11:00:56;;;;;;;23.17;6.50;;;;;;;21.36;42.66;100249.44;5048771;28;20385;-76
2023/12/03 11:03:49;;;;;;;38.15;7.35;;;;;;;21.53;43.11;100278.97;5046500;28;20037;-79
2023/12/03 11:06:17;;;;;;;25.85;5.50;;;;;;;21.54;43.07;100280.66;5048971;28;20067;-79
2023/12/03 11:08:46;;;;;;;23.77;6.38;;;;;;;21.47;43.17;100278.94;5048201;28;20021;-78
2023/12/03 11:11:13;;;;;;;31.45;6.47;;;;;;;21.40;43.56;100284.41;5048694;28;20052;-79
2023/12/03 11:13:42;;;;;;;28.00;5.35;;;;;;;21.32;43.48;100295.50;5048398;28;20037;-78